sensor_id;sensor_type;location;lat;lon;timestamp;P1;durP1;ratioP1;P2;durP2;ratioP2
25567;SDS011;13455;51.480;7.594;2023-05-21T00:02:08;16.63;;;11.57;;
25567;SDS011;13455;51.480;7.594;2023-05-21T00:04:39;15.20;;;11.07;;
25567;SDS011;13455;51.480;7.594;2023-05-21T00:07:05;14.05;;;10.82;;
25567;SDS011;13455;51.480;7.594;2023-05-21T00:09:32;16.40;;;11.20;;
25567;SDS011;13455;51.480;7.594;2023-05-21T00:11:58;16.27;;;11.50;;
25567;SDS011;13455;51.480;7.594;2023-05-21T00:14:24;14.98;;;11.20;;
25567;SDS011;13455;51.480;7.594;2023-05-21T00:16:50;15.70;;;11.30;;
25567;SDS011;13455;51.480;7.594;2023-05-21T00:19:16;16.40;;;11.30;;
25567;SDS011;13455;51.480;7.594;2023-05-21T00:21:42;16.08;;;11.30;;
25567;SDS011;13455;51.480;7.594;2023-05-21T00:24:09;16.05;;;11.18;;
25567;SDS011;13455;51.480;7.594;2023-05-21T00:26:36;14.55;;;11.38;;
25567;SDS011;13455;51.480;7.594;2023-05-21T00:29:02;16.80;;;11.50;;
25567;SDS011;13455;51.480;7.594;2023-05-21T00:31:28;18.00;;;11.60;;
25567;SDS011;13455;51.480;7.594;2023-05-21T00:33:54;14.05;;;11.68;;
25567;SDS011;13455;51.480;7.594;2023-05-21T00:36:20;14.88;;;11.18;;
25567;SDS011;13455;51.480;7.594;2023-05-21T00:38:48;15.07;;;11.50;;
25567;SDS011;13455;51.480;7.594;2023-05-21T00:41:14;16.40;;;11.87;;
25567;SDS011;13455;51.480;7.594;2023-05-21T00:43:40;14.43;;;11.73;;
25567;SDS011;13455;51.480;7.594;2023-05-21T00:46:14;15.48;;;11.85;;
25567;SDS011;13455;51.480;7.594;2023-05-21T00:48:45;14.95;;;11.93;;
25567;SDS011;13455;51.480;7.594;2023-05-21T00:51:12;17.48;;;11.90;;
25567;SDS011;13455;51.480;7.594;2023-05-21T00:53:38;18.40;;;12.20;;
25567;SDS011;13455;51.480;7.594;2023-05-21T00:56:04;15.27;;;11.50;;
25567;SDS011;13455;51.480;7.594;2023-05-21T00:58:31;16.40;;;12.00;;
25567;SDS011;13455;51.480;7.594;2023-05-21T01:00:57;16.90;;;11.82;;
25567;SDS011;13455;51.480;7.594;2023-05-21T01:03:28;13.65;;;11.25;;
25567;SDS011;13455;51.480;7.594;2023-05-21T01:05:54;16.83;;;11.50;;
25567;SDS011;13455;51.480;7.594;2023-05-21T01:08:24;15.75;;;11.23;;
25567;SDS011;13455;51.480;7.594;2023-05-21T01:10:52;14.52;;;11.15;;
25567;SDS011;13455;51.480;7.594;2023-05-21T01:13:20;13.90;;;11.05;;
25567;SDS011;13455;51.480;7.594;2023-05-21T01:15:47;14.30;;;11.15;;
25567;SDS011;13455;51.480;7.594;2023-05-21T01:18:14;16.27;;;11.20;;
25567;SDS011;13455;51.480;7.594;2023-05-21T01:20:41;15.30;;;11.38;;
25567;SDS011;13455;51.480;7.594;2023-05-21T01:23:13;15.10;;;10.98;;
25567;SDS011;13455;51.480;7.594;2023-05-21T01:25:39;14.02;;;10.90;;
25567;SDS011;13455;51.480;7.594;2023-05-21T01:28:06;16.77;;;11.10;;
25567;SDS011;13455;51.480;7.594;2023-05-21T01:30:31;17.30;;;11.27;;
25567;SDS011;13455;51.480;7.594;2023-05-21T01:33:02;15.93;;;11.45;;
25567;SDS011;13455;51.480;7.594;2023-05-21T01:35:40;17.42;;;10.88;;
25567;SDS011;13455;51.480;7.594;2023-05-21T01:41:21;13.27;;;10.60;;
25567;SDS011;13455;51.480;7.594;2023-05-21T01:43:48;13.48;;;10.57;;
25567;SDS011;13455;51.480;7.594;2023-05-21T01:46:18;15.43;;;10.18;;
25567;SDS011;13455;51.480;7.594;2023-05-21T01:48:47;13.13;;;10.10;;
25567;SDS011;13455;51.480;7.594;2023-05-21T01:51:13;14.95;;;10.38;;
25567;SDS011;13455;51.480;7.594;2023-05-21T01:53:40;13.90;;;10.27;;
25567;SDS011;13455;51.480;7.594;2023-05-21T01:56:06;15.18;;;10.73;;
25567;SDS011;13455;51.480;7.594;2023-05-21T01:58:32;13.88;;;10.50;;
25567;SDS011;13455;51.480;7.594;2023-05-21T02:00:59;14.45;;;10.50;;
25567;SDS011;13455;51.480;7.594;2023-05-21T02:03:26;14.07;;;10.80;;
25567;SDS011;13455;51.480;7.594;2023-05-21T02:05:54;13.65;;;10.25;;
25567;SDS011;13455;51.480;7.594;2023-05-21T02:08:21;13.02;;;10.80;;
25567;SDS011;13455;51.480;7.594;2023-05-21T02:10:47;13.23;;;10.50;;
25567;SDS011;13455;51.480;7.594;2023-05-21T02:13:13;14.30;;;10.48;;
25567;SDS011;13455;51.480;7.594;2023-05-21T02:15:40;14.98;;;10.95;;
25567;SDS011;13455;51.480;7.594;2023-05-21T02:18:06;14.75;;;10.88;;
25567;SDS011;13455;51.480;7.594;2023-05-21T02:20:32;14.80;;;11.07;;
25567;SDS011;13455;51.480;7.594;2023-05-21T02:22:58;13.00;;;10.50;;
25567;SDS011;13455;51.480;7.594;2023-05-21T02:25:24;13.23;;;11.02;;
25567;SDS011;13455;51.480;7.594;2023-05-21T02:27:50;15.40;;;11.20;;
25567;SDS011;13455;51.480;7.594;2023-05-21T02:30:17;14.30;;;10.80;;
25567;SDS011;13455;51.480;7.594;2023-05-21T02:32:43;13.50;;;10.38;;
25567;SDS011;13455;51.480;7.594;2023-05-21T02:35:10;12.90;;;10.50;;
25567;SDS011;13455;51.480;7.594;2023-05-21T02:37:37;13.30;;;10.55;;
25567;SDS011;13455;51.480;7.594;2023-05-21T02:40:05;13.40;;;10.77;;
25567;SDS011;13455;51.480;7.594;2023-05-21T02:42:33;14.00;;;10.10;;
25567;SDS011;13455;51.480;7.594;2023-05-21T02:45:00;12.18;;;9.82;;
25567;SDS011;13455;51.480;7.594;2023-05-21T02:47:26;13.90;;;9.80;;
25567;SDS011;13455;51.480;7.594;2023-05-21T02:49:53;11.88;;;9.70;;
25567;SDS011;13455;51.480;7.594;2023-05-21T02:52:19;12.38;;;10.10;;
25567;SDS011;13455;51.480;7.594;2023-05-21T02:54:48;14.02;;;10.10;;
25567;SDS011;13455;51.480;7.594;2023-05-21T02:57:14;13.98;;;9.90;;
25567;SDS011;13455;51.480;7.594;2023-05-21T02:59:42;13.27;;;9.73;;
25567;SDS011;13455;51.480;7.594;2023-05-21T03:02:08;13.15;;;10.15;;
25567;SDS011;13455;51.480;7.594;2023-05-21T03:04:34;13.47;;;10.10;;
25567;SDS011;13455;51.480;7.594;2023-05-21T03:07:03;12.98;;;10.00;;
25567;SDS011;13455;51.480;7.594;2023-05-21T03:09:29;12.75;;;10.20;;
25567;SDS011;13455;51.480;7.594;2023-05-21T03:11:55;13.45;;;10.40;;
25567;SDS011;13455;51.480;7.594;2023-05-21T03:14:20;13.65;;;9.95;;
25567;SDS011;13455;51.480;7.594;2023-05-21T03:16:48;13.15;;;10.20;;
25567;SDS011;13455;51.480;7.594;2023-05-21T03:19:15;13.00;;;10.07;;
25567;SDS011;13455;51.480;7.594;2023-05-21T03:21:41;14.00;;;10.13;;
25567;SDS011;13455;51.480;7.594;2023-05-21T03:24:07;12.45;;;9.68;;
25567;SDS011;13455;51.480;7.594;2023-05-21T03:26:33;12.35;;;10.05;;
25567;SDS011;13455;51.480;7.594;2023-05-21T03:28:59;13.25;;;9.90;;
25567;SDS011;13455;51.480;7.594;2023-05-21T03:31:25;13.07;;;10.32;;
25567;SDS011;13455;51.480;7.594;2023-05-21T03:33:51;13.57;;;10.43;;
25567;SDS011;13455;51.480;7.594;2023-05-21T03:36:18;12.65;;;10.02;;
25567;SDS011;13455;51.480;7.594;2023-05-21T03:38:43;13.27;;;10.27;;
25567;SDS011;13455;51.480;7.594;2023-05-21T03:41:10;13.18;;;10.15;;
25567;SDS011;13455;51.480;7.594;2023-05-21T03:43:36;14.15;;;10.40;;
25567;SDS011;13455;51.480;7.594;2023-05-21T03:46:01;12.63;;;10.00;;
25567;SDS011;13455;51.480;7.594;2023-05-21T03:48:27;13.40;;;10.20;;
25567;SDS011;13455;51.480;7.594;2023-05-21T03:50:53;13.57;;;10.20;;
25567;SDS011;13455;51.480;7.594;2023-05-21T03:53:19;13.65;;;10.48;;
25567;SDS011;13455;51.480;7.594;2023-05-21T03:55:45;12.57;;;10.10;;
25567;SDS011;13455;51.480;7.594;2023-05-21T03:58:11;12.65;;;10.05;;
25567;SDS011;13455;51.480;7.594;2023-05-21T04:00:37;13.95;;;10.20;;
25567;SDS011;13455;51.480;7.594;2023-05-21T04:03:03;12.05;;;9.98;;
25567;SDS011;13455;51.480;7.594;2023-05-21T04:05:28;14.18;;;10.55;;
25567;SDS011;13455;51.480;7.594;2023-05-21T04:07:54;14.00;;;10.55;;
25567;SDS011;13455;51.480;7.594;2023-05-21T04:10:19;14.40;;;10.33;;
25567;SDS011;13455;51.480;7.594;2023-05-21T04:12:47;12.57;;;10.15;;
25567;SDS011;13455;51.480;7.594;2023-05-21T04:15:16;13.57;;;10.60;;
25567;SDS011;13455;51.480;7.594;2023-05-21T04:17:43;13.67;;;10.17;;
25567;SDS011;13455;51.480;7.594;2023-05-21T04:20:12;13.05;;;10.35;;
25567;SDS011;13455;51.480;7.594;2023-05-21T04:22:41;13.47;;;10.33;;
25567;SDS011;13455;51.480;7.594;2023-05-21T04:25:07;13.80;;;10.52;;
25567;SDS011;13455;51.480;7.594;2023-05-21T04:27:33;13.82;;;10.40;;
25567;SDS011;13455;51.480;7.594;2023-05-21T04:30:00;13.48;;;10.13;;
25567;SDS011;13455;51.480;7.594;2023-05-21T04:32:27;13.07;;;10.50;;
25567;SDS011;13455;51.480;7.594;2023-05-21T04:34:54;13.27;;;10.50;;
25567;SDS011;13455;51.480;7.594;2023-05-21T04:37:21;12.73;;;10.32;;
25567;SDS011;13455;51.480;7.594;2023-05-21T04:39:51;13.35;;;10.40;;
25567;SDS011;13455;51.480;7.594;2023-05-21T04:42:21;13.57;;;10.27;;
25567;SDS011;13455;51.480;7.594;2023-05-21T04:44:48;13.05;;;10.50;;
25567;SDS011;13455;51.480;7.594;2023-05-21T04:47:14;12.87;;;9.97;;
25567;SDS011;13455;51.480;7.594;2023-05-21T04:49:42;12.90;;;10.10;;
25567;SDS011;13455;51.480;7.594;2023-05-21T04:52:08;13.35;;;10.02;;
25567;SDS011;13455;51.480;7.594;2023-05-21T04:54:34;12.17;;;10.13;;
25567;SDS011;13455;51.480;7.594;2023-05-21T04:57:05;13.20;;;10.38;;
25567;SDS011;13455;51.480;7.594;2023-05-21T04:59:31;13.93;;;10.02;;
25567;SDS011;13455;51.480;7.594;2023-05-21T05:01:57;13.67;;;10.30;;
25567;SDS011;13455;51.480;7.594;2023-05-21T05:04:22;11.67;;;9.33;;
25567;SDS011;13455;51.480;7.594;2023-05-21T05:06:48;13.43;;;9.97;;
25567;SDS011;13455;51.480;7.594;2023-05-21T05:09:14;12.15;;;9.85;;
25567;SDS011;13455;51.480;7.594;2023-05-21T05:11:40;13.32;;;10.07;;
25567;SDS011;13455;51.480;7.594;2023-05-21T05:14:06;13.18;;;9.95;;
25567;SDS011;13455;51.480;7.594;2023-05-21T05:16:32;12.98;;;9.65;;
25567;SDS011;13455;51.480;7.594;2023-05-21T05:18:59;14.37;;;10.40;;
25567;SDS011;13455;51.480;7.594;2023-05-21T05:21:25;13.23;;;10.10;;
25567;SDS011;13455;51.480;7.594;2023-05-21T05:23:51;14.23;;;10.57;;
25567;SDS011;13455;51.480;7.594;2023-05-21T05:26:16;13.30;;;10.57;;
25567;SDS011;13455;51.480;7.594;2023-05-21T05:28:42;13.60;;;10.80;;
25567;SDS011;13455;51.480;7.594;2023-05-21T05:31:09;13.38;;;10.50;;
25567;SDS011;13455;51.480;7.594;2023-05-21T05:33:35;13.85;;;10.80;;
25567;SDS011;13455;51.480;7.594;2023-05-21T05:36:01;12.30;;;9.97;;
25567;SDS011;13455;51.480;7.594;2023-05-21T05:38:26;14.73;;;10.67;;
25567;SDS011;13455;51.480;7.594;2023-05-21T05:40:52;15.13;;;10.50;;
25567;SDS011;13455;51.480;7.594;2023-05-21T05:43:17;13.00;;;10.40;;
25567;SDS011;13455;51.480;7.594;2023-05-21T05:45:43;13.77;;;10.63;;
25567;SDS011;13455;51.480;7.594;2023-05-21T05:48:09;13.25;;;10.23;;
25567;SDS011;13455;51.480;7.594;2023-05-21T05:50:35;14.70;;;10.48;;
25567;SDS011;13455;51.480;7.594;2023-05-21T05:53:01;12.23;;;10.48;;
25567;SDS011;13455;51.480;7.594;2023-05-21T05:55:27;13.05;;;10.60;;
25567;SDS011;13455;51.480;7.594;2023-05-21T05:57:52;12.70;;;10.80;;
25567;SDS011;13455;51.480;7.594;2023-05-21T06:00:18;14.10;;;10.63;;
25567;SDS011;13455;51.480;7.594;2023-05-21T06:02:44;13.27;;;10.40;;
25567;SDS011;13455;51.480;7.594;2023-05-21T06:05:09;13.07;;;10.60;;
25567;SDS011;13455;51.480;7.594;2023-05-21T06:07:38;13.60;;;10.75;;
25567;SDS011;13455;51.480;7.594;2023-05-21T06:10:07;12.68;;;10.30;;
25567;SDS011;13455;51.480;7.594;2023-05-21T06:12:34;14.73;;;10.73;;
25567;SDS011;13455;51.480;7.594;2023-05-21T06:14:59;14.65;;;10.88;;
25567;SDS011;13455;51.480;7.594;2023-05-21T06:17:25;14.15;;;10.60;;
25567;SDS011;13455;51.480;7.594;2023-05-21T06:19:51;13.63;;;10.20;;
25567;SDS011;13455;51.480;7.594;2023-05-21T06:22:17;14.05;;;10.35;;
25567;SDS011;13455;51.480;7.594;2023-05-21T06:24:42;12.95;;;10.52;;
25567;SDS011;13455;51.480;7.594;2023-05-21T06:27:08;12.47;;;10.07;;
25567;SDS011;13455;51.480;7.594;2023-05-21T06:29:34;13.33;;;10.40;;
25567;SDS011;13455;51.480;7.594;2023-05-21T06:31:59;12.37;;;10.20;;
25567;SDS011;13455;51.480;7.594;2023-05-21T06:34:25;14.20;;;10.33;;
25567;SDS011;13455;51.480;7.594;2023-05-21T06:36:52;13.47;;;10.60;;
25567;SDS011;13455;51.480;7.594;2023-05-21T06:39:18;12.32;;;10.38;;
25567;SDS011;13455;51.480;7.594;2023-05-21T06:41:44;13.97;;;10.90;;
25567;SDS011;13455;51.480;7.594;2023-05-21T06:44:09;14.30;;;11.00;;
25567;SDS011;13455;51.480;7.594;2023-05-21T06:46:35;13.83;;;10.70;;
25567;SDS011;13455;51.480;7.594;2023-05-21T06:49:01;12.77;;;10.30;;
25567;SDS011;13455;51.480;7.594;2023-05-21T06:51:27;13.57;;;10.80;;
25567;SDS011;13455;51.480;7.594;2023-05-21T06:53:53;12.10;;;10.47;;
25567;SDS011;13455;51.480;7.594;2023-05-21T06:56:18;12.63;;;10.13;;
25567;SDS011;13455;51.480;7.594;2023-05-21T06:58:45;13.70;;;10.57;;
25567;SDS011;13455;51.480;7.594;2023-05-21T07:01:11;12.52;;;10.18;;
25567;SDS011;13455;51.480;7.594;2023-05-21T07:03:36;14.00;;;10.18;;
25567;SDS011;13455;51.480;7.594;2023-05-21T07:06:02;13.95;;;10.55;;
25567;SDS011;13455;51.480;7.594;2023-05-21T07:08:28;14.52;;;11.02;;
25567;SDS011;13455;51.480;7.594;2023-05-21T07:10:53;13.33;;;10.40;;
25567;SDS011;13455;51.480;7.594;2023-05-21T07:13:20;14.20;;;10.80;;
25567;SDS011;13455;51.480;7.594;2023-05-21T07:15:46;14.20;;;11.30;;
25567;SDS011;13455;51.480;7.594;2023-05-21T07:18:11;14.27;;;10.90;;
25567;SDS011;13455;51.480;7.594;2023-05-21T07:20:37;13.30;;;10.57;;
25567;SDS011;13455;51.480;7.594;2023-05-21T07:23:03;13.20;;;10.38;;
25567;SDS011;13455;51.480;7.594;2023-05-21T07:25:29;12.40;;;10.30;;
25567;SDS011;13455;51.480;7.594;2023-05-21T07:27:57;12.50;;;9.98;;
25567;SDS011;13455;51.480;7.594;2023-05-21T07:30:22;14.13;;;10.50;;
25567;SDS011;13455;51.480;7.594;2023-05-21T07:32:48;13.90;;;11.07;;
25567;SDS011;13455;51.480;7.594;2023-05-21T07:35:13;14.40;;;11.20;;
25567;SDS011;13455;51.480;7.594;2023-05-21T07:37:39;15.13;;;10.63;;
25567;SDS011;13455;51.480;7.594;2023-05-21T07:40:05;13.32;;;10.50;;
25567;SDS011;13455;51.480;7.594;2023-05-21T07:42:31;13.27;;;10.73;;
25567;SDS011;13455;51.480;7.594;2023-05-21T07:44:57;13.60;;;10.48;;
25567;SDS011;13455;51.480;7.594;2023-05-21T07:47:23;13.00;;;10.23;;
25567;SDS011;13455;51.480;7.594;2023-05-21T07:49:49;14.40;;;10.50;;
25567;SDS011;13455;51.480;7.594;2023-05-21T07:52:15;14.07;;;10.47;;
25567;SDS011;13455;51.480;7.594;2023-05-21T07:54:40;12.63;;;10.70;;
25567;SDS011;13455;51.480;7.594;2023-05-21T07:57:06;13.30;;;10.65;;
25567;SDS011;13455;51.480;7.594;2023-05-21T07:59:31;13.60;;;10.75;;
25567;SDS011;13455;51.480;7.594;2023-05-21T08:01:57;13.70;;;11.20;;
25567;SDS011;13455;51.480;7.594;2023-05-21T08:04:23;13.10;;;10.88;;
25567;SDS011;13455;51.480;7.594;2023-05-21T08:06:49;16.67;;;10.83;;
25567;SDS011;13455;51.480;7.594;2023-05-21T08:09:15;15.73;;;11.10;;
25567;SDS011;13455;51.480;7.594;2023-05-21T08:11:41;15.57;;;11.70;;
25567;SDS011;13455;51.480;7.594;2023-05-21T08:14:07;14.77;;;11.40;;
25567;SDS011;13455;51.480;7.594;2023-05-21T08:16:33;13.70;;;10.90;;
25567;SDS011;13455;51.480;7.594;2023-05-21T08:18:59;14.20;;;11.10;;
25567;SDS011;13455;51.480;7.594;2023-05-21T08:21:24;15.33;;;11.57;;
25567;SDS011;13455;51.480;7.594;2023-05-21T08:23:53;13.73;;;11.30;;
25567;SDS011;13455;51.480;7.594;2023-05-21T08:26:19;14.68;;;11.43;;
25567;SDS011;13455;51.480;7.594;2023-05-21T08:28:45;17.07;;;12.03;;
25567;SDS011;13455;51.480;7.594;2023-05-21T08:31:11;15.80;;;11.90;;
25567;SDS011;13455;51.480;7.594;2023-05-21T08:33:37;15.57;;;11.45;;
25567;SDS011;13455;51.480;7.594;2023-05-21T08:36:06;14.52;;;11.50;;
25567;SDS011;13455;51.480;7.594;2023-05-21T08:38:35;13.50;;;11.80;;
25567;SDS011;13455;51.480;7.594;2023-05-21T08:41:01;13.65;;;11.63;;
25567;SDS011;13455;51.480;7.594;2023-05-21T08:43:29;16.77;;;12.30;;
25567;SDS011;13455;51.480;7.594;2023-05-21T08:45:57;15.68;;;12.30;;
25567;SDS011;13455;51.480;7.594;2023-05-21T08:48:25;16.23;;;12.10;;
25567;SDS011;13455;51.480;7.594;2023-05-21T08:50:51;15.50;;;12.00;;
25567;SDS011;13455;51.480;7.594;2023-05-21T08:53:19;15.02;;;12.05;;
25567;SDS011;13455;51.480;7.594;2023-05-21T08:55:45;15.27;;;11.73;;
25567;SDS011;13455;51.480;7.594;2023-05-21T08:58:11;14.70;;;11.70;;
25567;SDS011;13455;51.480;7.594;2023-05-21T09:00:38;14.90;;;12.03;;
25567;SDS011;13455;51.480;7.594;2023-05-21T09:03:04;14.50;;;11.63;;
25567;SDS011;13455;51.480;7.594;2023-05-21T09:05:41;15.10;;;12.07;;
25567;SDS011;13455;51.480;7.594;2023-05-21T09:10:49;15.13;;;12.52;;
25567;SDS011;13455;51.480;7.594;2023-05-21T09:13:16;13.82;;;11.90;;
25567;SDS011;13455;51.480;7.594;2023-05-21T09:15:46;15.63;;;12.17;;
25567;SDS011;13455;51.480;7.594;2023-05-21T09:18:12;14.40;;;11.77;;
25567;SDS011;13455;51.480;7.594;2023-05-21T09:20:39;16.60;;;12.07;;
25567;SDS011;13455;51.480;7.594;2023-05-21T09:23:05;15.45;;;12.57;;
25567;SDS011;13455;51.480;7.594;2023-05-21T09:25:40;14.70;;;11.68;;
25567;SDS011;13455;51.480;7.594;2023-05-21T09:28:11;13.90;;;11.93;;
25567;SDS011;13455;51.480;7.594;2023-05-21T09:30:47;14.43;;;12.20;;
25567;SDS011;13455;51.480;7.594;2023-05-21T09:33:26;15.25;;;12.20;;
25567;SDS011;13455;51.480;7.594;2023-05-21T09:35:55;14.63;;;12.20;;
25567;SDS011;13455;51.480;7.594;2023-05-21T09:38:21;15.02;;;12.43;;
25567;SDS011;13455;51.480;7.594;2023-05-21T09:40:48;14.85;;;12.15;;
25567;SDS011;13455;51.480;7.594;2023-05-21T09:43:14;16.23;;;12.40;;
25567;SDS011;13455;51.480;7.594;2023-05-21T09:45:50;14.45;;;11.98;;
25567;SDS011;13455;51.480;7.594;2023-05-21T09:48:16;14.45;;;11.98;;
25567;SDS011;13455;51.480;7.594;2023-05-21T09:50:42;14.75;;;12.85;;
25567;SDS011;13455;51.480;7.594;2023-05-21T09:53:11;15.05;;;12.45;;
25567;SDS011;13455;51.480;7.594;2023-05-21T09:55:39;16.10;;;12.27;;
25567;SDS011;13455;51.480;7.594;2023-05-21T09:58:06;16.40;;;12.60;;
25567;SDS011;13455;51.480;7.594;2023-05-21T10:00:32;14.00;;;12.50;;
25567;SDS011;13455;51.480;7.594;2023-05-21T10:03:02;15.90;;;12.67;;
25567;SDS011;13455;51.480;7.594;2023-05-21T10:05:30;16.00;;;12.87;;
25567;SDS011;13455;51.480;7.594;2023-05-21T10:08:01;15.40;;;12.48;;
25567;SDS011;13455;51.480;7.594;2023-05-21T10:10:28;15.43;;;12.80;;
25567;SDS011;13455;51.480;7.594;2023-05-21T10:13:04;14.18;;;12.68;;
25567;SDS011;13455;51.480;7.594;2023-05-21T10:15:42;15.00;;;12.80;;
25567;SDS011;13455;51.480;7.594;2023-05-21T10:18:09;15.15;;;12.77;;
25567;SDS011;13455;51.480;7.594;2023-05-21T10:20:37;16.45;;;13.38;;
25567;SDS011;13455;51.480;7.594;2023-05-21T10:23:04;14.70;;;13.10;;
25567;SDS011;13455;51.480;7.594;2023-05-21T10:25:30;16.33;;;13.30;;
25567;SDS011;13455;51.480;7.594;2023-05-21T10:27:56;17.45;;;13.00;;
25567;SDS011;13455;51.480;7.594;2023-05-21T10:30:22;17.45;;;14.13;;
25567;SDS011;13455;51.480;7.594;2023-05-21T10:32:48;15.43;;;13.43;;
25567;SDS011;13455;51.480;7.594;2023-05-21T10:35:15;16.05;;;14.18;;
25567;SDS011;13455;51.480;7.594;2023-05-21T10:37:44;17.27;;;13.93;;
25567;SDS011;13455;51.480;7.594;2023-05-21T10:40:10;15.67;;;14.00;;
25567;SDS011;13455;51.480;7.594;2023-05-21T10:48:32;14.67;;;13.10;;
25567;SDS011;13455;51.480;7.594;2023-05-21T10:59:21;17.23;;;14.35;;
25567;SDS011;13455;51.480;7.594;2023-05-21T11:02:10;16.53;;;14.43;;
25567;SDS011;13455;51.480;7.594;2023-05-21T11:04:39;15.80;;;13.70;;
25567;SDS011;13455;51.480;7.594;2023-05-21T11:07:07;17.27;;;14.20;;
25567;SDS011;13455;51.480;7.594;2023-05-21T11:09:33;16.55;;;13.57;;
25567;SDS011;13455;51.480;7.594;2023-05-21T11:11:59;16.95;;;13.85;;
25567;SDS011;13455;51.480;7.594;2023-05-21T11:17:09;16.67;;;14.48;;
25567;SDS011;13455;51.480;7.594;2023-05-21T11:22:20;14.95;;;13.07;;
25567;SDS011;13455;51.480;7.594;2023-05-21T11:24:47;17.02;;;14.00;;
25567;SDS011;13455;51.480;7.594;2023-05-21T11:29:56;16.20;;;14.45;;
25567;SDS011;13455;51.480;7.594;2023-05-21T11:32:22;15.80;;;14.10;;
25567;SDS011;13455;51.480;7.594;2023-05-21T11:34:48;15.82;;;13.77;;
25567;SDS011;13455;51.480;7.594;2023-05-21T11:39:49;16.88;;;13.80;;
25567;SDS011;13455;51.480;7.594;2023-05-21T11:44:57;18.73;;;14.13;;
25567;SDS011;13455;51.480;7.594;2023-05-21T11:47:23;15.65;;;13.52;;
25567;SDS011;13455;51.480;7.594;2023-05-21T11:49:53;19.67;;;13.32;;
25567;SDS011;13455;51.480;7.594;2023-05-21T11:52:20;16.60;;;13.43;;
25567;SDS011;13455;51.480;7.594;2023-05-21T11:54:47;17.27;;;13.52;;
25567;SDS011;13455;51.480;7.594;2023-05-21T11:57:16;18.33;;;13.97;;
25567;SDS011;13455;51.480;7.594;2023-05-21T11:59:43;15.52;;;13.18;;
25567;SDS011;13455;51.480;7.594;2023-05-21T12:02:17;15.70;;;13.67;;
25567;SDS011;13455;51.480;7.594;2023-05-21T12:04:44;15.95;;;12.93;;
25567;SDS011;13455;51.480;7.594;2023-05-21T12:07:12;15.25;;;13.27;;
25567;SDS011;13455;51.480;7.594;2023-05-21T12:09:43;16.05;;;13.18;;
25567;SDS011;13455;51.480;7.594;2023-05-21T12:12:09;14.82;;;12.80;;
25567;SDS011;13455;51.480;7.594;2023-05-21T12:14:41;15.07;;;12.95;;
25567;SDS011;13455;51.480;7.594;2023-05-21T12:17:09;15.48;;;13.07;;
25567;SDS011;13455;51.480;7.594;2023-05-21T12:19:37;17.03;;;12.87;;
25567;SDS011;13455;51.480;7.594;2023-05-21T12:22:04;15.13;;;12.88;;
25567;SDS011;13455;51.480;7.594;2023-05-21T12:24:31;16.67;;;13.25;;
25567;SDS011;13455;51.480;7.594;2023-05-21T12:27:00;15.45;;;12.80;;
25567;SDS011;13455;51.480;7.594;2023-05-21T12:29:33;14.93;;;13.43;;
25567;SDS011;13455;51.480;7.594;2023-05-21T12:32:00;16.23;;;13.37;;
25567;SDS011;13455;51.480;7.594;2023-05-21T12:34:43;15.40;;;12.43;;
25567;SDS011;13455;51.480;7.594;2023-05-21T12:37:11;17.38;;;13.18;;
25567;SDS011;13455;51.480;7.594;2023-05-21T12:39:54;14.52;;;12.90;;
25567;SDS011;13455;51.480;7.594;2023-05-21T12:42:29;14.25;;;12.65;;
25567;SDS011;13455;51.480;7.594;2023-05-21T12:44:58;15.18;;;13.07;;
25567;SDS011;13455;51.480;7.594;2023-05-21T12:47:25;16.25;;;13.95;;
25567;SDS011;13455;51.480;7.594;2023-05-21T12:50:13;16.30;;;13.43;;
25567;SDS011;13455;51.480;7.594;2023-05-21T12:52:41;15.85;;;12.57;;
25567;SDS011;13455;51.480;7.594;2023-05-21T12:55:08;15.75;;;12.90;;
25567;SDS011;13455;51.480;7.594;2023-05-21T12:57:37;14.68;;;12.88;;
25567;SDS011;13455;51.480;7.594;2023-05-21T13:00:03;15.77;;;12.67;;
25567;SDS011;13455;51.480;7.594;2023-05-21T13:02:33;13.68;;;11.77;;
25567;SDS011;13455;51.480;7.594;2023-05-21T13:05:03;15.48;;;12.00;;
25567;SDS011;13455;51.480;7.594;2023-05-21T13:07:30;14.60;;;12.38;;
25567;SDS011;13455;51.480;7.594;2023-05-21T13:09:57;15.18;;;12.57;;
25567;SDS011;13455;51.480;7.594;2023-05-21T13:12:26;14.63;;;12.73;;
25567;SDS011;13455;51.480;7.594;2023-05-21T13:14:54;15.23;;;12.40;;
25567;SDS011;13455;51.480;7.594;2023-05-21T13:17:21;16.55;;;13.77;;
25567;SDS011;13455;51.480;7.594;2023-05-21T13:22:43;14.60;;;12.30;;
25567;SDS011;13455;51.480;7.594;2023-05-21T13:25:13;13.88;;;12.10;;
25567;SDS011;13455;51.480;7.594;2023-05-21T13:27:40;13.73;;;10.90;;
25567;SDS011;13455;51.480;7.594;2023-05-21T13:30:07;12.52;;;11.23;;
25567;SDS011;13455;51.480;7.594;2023-05-21T13:32:35;13.77;;;11.52;;
25567;SDS011;13455;51.480;7.594;2023-05-21T13:35:01;14.50;;;12.02;;
25567;SDS011;13455;51.480;7.594;2023-05-21T13:37:27;13.85;;;11.70;;
25567;SDS011;13455;51.480;7.594;2023-05-21T13:39:53;15.10;;;12.43;;
25567;SDS011;13455;51.480;7.594;2023-05-21T13:42:19;14.43;;;11.15;;
25567;SDS011;13455;51.480;7.594;2023-05-21T13:44:47;13.60;;;11.45;;
25567;SDS011;13455;51.480;7.594;2023-05-21T13:47:14;15.30;;;11.30;;
25567;SDS011;13455;51.480;7.594;2023-05-21T13:49:40;13.20;;;10.80;;
25567;SDS011;13455;51.480;7.594;2023-05-21T13:52:06;13.50;;;10.50;;
25567;SDS011;13455;51.480;7.594;2023-05-21T13:54:33;12.85;;;10.60;;
25567;SDS011;13455;51.480;7.594;2023-05-21T13:57:00;12.23;;;10.23;;
25567;SDS011;13455;51.480;7.594;2023-05-21T13:59:26;11.02;;;9.82;;
25567;SDS011;13455;51.480;7.594;2023-05-21T14:01:51;11.10;;;9.50;;
25567;SDS011;13455;51.480;7.594;2023-05-21T14:04:17;12.98;;;10.35;;
25567;SDS011;13455;51.480;7.594;2023-05-21T14:06:44;12.10;;;9.98;;
25567;SDS011;13455;51.480;7.594;2023-05-21T14:09:10;10.70;;;9.60;;
25567;SDS011;13455;51.480;7.594;2023-05-21T14:11:36;11.65;;;9.63;;
25567;SDS011;13455;51.480;7.594;2023-05-21T14:14:02;11.53;;;10.33;;
25567;SDS011;13455;51.480;7.594;2023-05-21T14:16:28;13.02;;;10.00;;
25567;SDS011;13455;51.480;7.594;2023-05-21T14:18:54;11.30;;;9.95;;
25567;SDS011;13455;51.480;7.594;2023-05-21T14:21:21;11.65;;;9.75;;
25567;SDS011;13455;51.480;7.594;2023-05-21T14:23:47;11.53;;;10.20;;
25567;SDS011;13455;51.480;7.594;2023-05-21T14:26:14;11.87;;;9.93;;
25567;SDS011;13455;51.480;7.594;2023-05-21T14:28:40;13.32;;;10.52;;
25567;SDS011;13455;51.480;7.594;2023-05-21T14:31:07;11.07;;;9.68;;
25567;SDS011;13455;51.480;7.594;2023-05-21T14:33:34;10.75;;;9.52;;
25567;SDS011;13455;51.480;7.594;2023-05-21T14:36:01;11.63;;;9.60;;
25567;SDS011;13455;51.480;7.594;2023-05-21T14:38:27;11.55;;;9.57;;
25567;SDS011;13455;51.480;7.594;2023-05-21T14:40:53;15.33;;;9.90;;
25567;SDS011;13455;51.480;7.594;2023-05-21T14:43:19;12.02;;;9.70;;
25567;SDS011;13455;51.480;7.594;2023-05-21T14:45:45;10.35;;;9.10;;
25567;SDS011;13455;51.480;7.594;2023-05-21T14:48:11;12.80;;;9.18;;
25567;SDS011;13455;51.480;7.594;2023-05-21T14:50:38;11.93;;;9.20;;
25567;SDS011;13455;51.480;7.594;2023-05-21T14:53:07;12.73;;;10.27;;
25567;SDS011;13455;51.480;7.594;2023-05-21T14:55:34;10.57;;;9.20;;
25567;SDS011;13455;51.480;7.594;2023-05-21T14:58:01;11.32;;;9.38;;
25567;SDS011;13455;51.480;7.594;2023-05-21T15:00:28;10.20;;;9.20;;